sensor_id;sensor_type;location;lat;lon;timestamp;P1;durP1;ratioP1;P2;durP2;ratioP2
39968;SDS011;25648;47.808;19.004;2022-12-20T00:01:19;65.72;;;30.58;;
39968;SDS011;25648;47.808;19.004;2022-12-20T00:03:49;69.10;;;30.85;;
39968;SDS011;25648;47.808;19.004;2022-12-20T00:06:16;67.05;;;29.58;;
39968;SDS011;25648;47.808;19.004;2022-12-20T00:08:42;64.13;;;28.83;;
39968;SDS011;25648;47.808;19.004;2022-12-20T00:11:09;68.80;;;29.48;;
39968;SDS011;25648;47.808;19.004;2022-12-20T00:13:35;66.72;;;28.33;;
39968;SDS011;25648;47.808;19.004;2022-12-20T00:16:12;62.88;;;28.02;;
39968;SDS011;25648;47.808;19.004;2022-12-20T00:18:39;65.70;;;29.20;;
39968;SDS011;25648;47.808;19.004;2022-12-20T00:21:06;65.85;;;29.05;;
39968;SDS011;25648;47.808;19.004;2022-12-20T00:23:34;68.82;;;29.17;;
39968;SDS011;25648;47.808;19.004;2022-12-20T00:26:04;70.57;;;29.02;;
39968;SDS011;25648;47.808;19.004;2022-12-20T00:28:33;57.38;;;26.40;;
39968;SDS011;25648;47.808;19.004;2022-12-20T00:30:59;68.47;;;28.75;;
39968;SDS011;25648;47.808;19.004;2022-12-20T00:33:26;69.85;;;28.02;;
39968;SDS011;25648;47.808;19.004;2022-12-20T00:35:53;66.75;;;29.08;;
39968;SDS011;25648;47.808;19.004;2022-12-20T00:38:20;69.28;;;30.15;;
39968;SDS011;25648;47.808;19.004;2022-12-20T00:40:47;70.03;;;28.35;;
39968;SDS011;25648;47.808;19.004;2022-12-20T00:43:22;71.05;;;29.20;;
39968;SDS011;25648;47.808;19.004;2022-12-20T00:45:48;62.70;;;28.00;;
39968;SDS011;25648;47.808;19.004;2022-12-20T00:48:13;66.80;;;29.38;;
39968;SDS011;25648;47.808;19.004;2022-12-20T00:50:39;69.28;;;29.38;;
39968;SDS011;25648;47.808;19.004;2022-12-20T00:53:05;65.68;;;27.20;;
39968;SDS011;25648;47.808;19.004;2022-12-20T00:55:33;70.75;;;30.67;;
39968;SDS011;25648;47.808;19.004;2022-12-20T00:57:59;63.50;;;27.83;;
39968;SDS011;25648;47.808;19.004;2022-12-20T01:00:25;70.38;;;29.45;;
39968;SDS011;25648;47.808;19.004;2022-12-20T01:02:50;60.03;;;26.83;;
39968;SDS011;25648;47.808;19.004;2022-12-20T01:05:16;66.07;;;28.25;;
39968;SDS011;25648;47.808;19.004;2022-12-20T01:07:41;65.55;;;29.48;;
39968;SDS011;25648;47.808;19.004;2022-12-20T01:10:07;68.20;;;28.65;;
39968;SDS011;25648;47.808;19.004;2022-12-20T01:12:33;68.03;;;29.45;;
39968;SDS011;25648;47.808;19.004;2022-12-20T01:14:59;66.65;;;28.55;;
39968;SDS011;25648;47.808;19.004;2022-12-20T01:17:25;72.72;;;29.83;;
39968;SDS011;25648;47.808;19.004;2022-12-20T01:19:50;71.43;;;29.23;;
39968;SDS011;25648;47.808;19.004;2022-12-20T01:22:16;69.15;;;29.63;;
39968;SDS011;25648;47.808;19.004;2022-12-20T01:24:41;65.18;;;28.77;;
39968;SDS011;25648;47.808;19.004;2022-12-20T01:27:07;72.18;;;31.42;;
39968;SDS011;25648;47.808;19.004;2022-12-20T01:29:33;71.57;;;30.02;;
39968;SDS011;25648;47.808;19.004;2022-12-20T01:31:58;67.65;;;29.13;;
39968;SDS011;25648;47.808;19.004;2022-12-20T01:34:24;73.03;;;30.67;;
39968;SDS011;25648;47.808;19.004;2022-12-20T01:36:50;68.38;;;30.02;;
39968;SDS011;25648;47.808;19.004;2022-12-20T01:39:15;66.70;;;29.40;;
39968;SDS011;25648;47.808;19.004;2022-12-20T01:41:42;73.22;;;29.75;;
39968;SDS011;25648;47.808;19.004;2022-12-20T01:46:41;66.38;;;29.58;;
39968;SDS011;25648;47.808;19.004;2022-12-20T01:49:10;66.75;;;29.30;;
39968;SDS011;25648;47.808;19.004;2022-12-20T01:52:01;71.15;;;29.40;;
39968;SDS011;25648;47.808;19.004;2022-12-20T01:54:35;65.00;;;28.88;;
39968;SDS011;25648;47.808;19.004;2022-12-20T01:57:09;68.47;;;28.05;;
39968;SDS011;25648;47.808;19.004;2022-12-20T01:59:39;68.55;;;28.08;;
39968;SDS011;25648;47.808;19.004;2022-12-20T02:02:08;67.70;;;29.20;;
39968;SDS011;25648;47.808;19.004;2022-12-20T02:04:36;69.85;;;28.95;;
39968;SDS011;25648;47.808;19.004;2022-12-20T02:07:02;61.30;;;27.88;;
39968;SDS011;25648;47.808;19.004;2022-12-20T02:09:29;62.38;;;28.80;;
39968;SDS011;25648;47.808;19.004;2022-12-20T02:12:03;64.05;;;29.45;;
39968;SDS011;25648;47.808;19.004;2022-12-20T02:27:53;68.43;;;29.10;;
39968;SDS011;25648;47.808;19.004;2022-12-20T02:30:33;75.53;;;29.75;;
39968;SDS011;25648;47.808;19.004;2022-12-20T02:33:03;73.95;;;29.95;;
39968;SDS011;25648;47.808;19.004;2022-12-20T02:35:33;46.72;;;21.42;;
39968;SDS011;25648;47.808;19.004;2022-12-20T02:38:02;66.05;;;28.98;;
39968;SDS011;25648;47.808;19.004;2022-12-20T02:43:19;61.20;;;27.27;;
39968;SDS011;25648;47.808;19.004;2022-12-20T02:46:05;63.20;;;27.63;;
39968;SDS011;25648;47.808;19.004;2022-12-20T02:48:32;61.83;;;27.33;;
39968;SDS011;25648;47.808;19.004;2022-12-20T02:51:00;60.95;;;26.17;;
39968;SDS011;25648;47.808;19.004;2022-12-20T02:53:29;65.00;;;28.67;;
39968;SDS011;25648;47.808;19.004;2022-12-20T02:55:58;63.67;;;27.75;;
39968;SDS011;25648;47.808;19.004;2022-12-20T02:58:50;67.65;;;27.48;;
39968;SDS011;25648;47.808;19.004;2022-12-20T03:01:22;60.50;;;27.05;;
39968;SDS011;25648;47.808;19.004;2022-12-20T03:03:54;59.55;;;26.35;;
39968;SDS011;25648;47.808;19.004;2022-12-20T03:06:22;62.90;;;27.27;;
39968;SDS011;25648;47.808;19.004;2022-12-20T03:08:47;59.65;;;25.67;;
39968;SDS011;25648;47.808;19.004;2022-12-20T03:11:13;60.72;;;25.88;;
39968;SDS011;25648;47.808;19.004;2022-12-20T03:13:39;55.55;;;26.25;;
39968;SDS011;25648;47.808;19.004;2022-12-20T03:16:05;58.30;;;23.98;;
39968;SDS011;25648;47.808;19.004;2022-12-20T03:18:32;57.58;;;25.60;;
39968;SDS011;25648;47.808;19.004;2022-12-20T03:20:58;62.90;;;27.42;;
39968;SDS011;25648;47.808;19.004;2022-12-20T03:23:23;64.35;;;25.40;;
39968;SDS011;25648;47.808;19.004;2022-12-20T03:25:49;54.85;;;25.23;;
39968;SDS011;25648;47.808;19.004;2022-12-20T03:28:15;61.10;;;26.27;;
39968;SDS011;25648;47.808;19.004;2022-12-20T03:30:40;63.95;;;26.95;;
39968;SDS011;25648;47.808;19.004;2022-12-20T03:33:06;64.53;;;26.05;;
39968;SDS011;25648;47.808;19.004;2022-12-20T03:38:03;59.90;;;25.67;;
39968;SDS011;25648;47.808;19.004;2022-12-20T03:40:29;60.50;;;27.55;;
39968;SDS011;25648;47.808;19.004;2022-12-20T03:42:54;62.33;;;26.52;;
39968;SDS011;25648;47.808;19.004;2022-12-20T03:45:20;59.05;;;27.48;;
39968;SDS011;25648;47.808;19.004;2022-12-20T03:47:46;59.65;;;25.33;;
39968;SDS011;25648;47.808;19.004;2022-12-20T03:52:40;60.00;;;27.52;;
39968;SDS011;25648;47.808;19.004;2022-12-20T03:55:06;55.72;;;26.05;;
39968;SDS011;25648;47.808;19.004;2022-12-20T03:57:33;55.72;;;25.85;;
39968;SDS011;25648;47.808;19.004;2022-12-20T03:59:59;53.60;;;25.30;;
39968;SDS011;25648;47.808;19.004;2022-12-20T04:02:25;54.40;;;25.75;;
39968;SDS011;25648;47.808;19.004;2022-12-20T04:04:51;55.20;;;25.70;;
39968;SDS011;25648;47.808;19.004;2022-12-20T04:07:16;57.05;;;26.52;;
39968;SDS011;25648;47.808;19.004;2022-12-20T04:09:42;57.45;;;23.85;;
39968;SDS011;25648;47.808;19.004;2022-12-20T04:12:08;54.83;;;25.30;;
39968;SDS011;25648;47.808;19.004;2022-12-20T04:14:33;59.42;;;26.95;;
39968;SDS011;25648;47.808;19.004;2022-12-20T04:17:00;58.67;;;27.05;;
39968;SDS011;25648;47.808;19.004;2022-12-20T04:19:26;55.78;;;25.38;;
39968;SDS011;25648;47.808;19.004;2022-12-20T04:21:51;61.63;;;25.27;;
39968;SDS011;25648;47.808;19.004;2022-12-20T04:24:19;51.65;;;25.27;;
39968;SDS011;25648;47.808;19.004;2022-12-20T04:26:45;55.17;;;25.02;;
39968;SDS011;25648;47.808;19.004;2022-12-20T04:29:11;60.00;;;25.40;;
39968;SDS011;25648;47.808;19.004;2022-12-20T04:31:37;56.67;;;24.98;;
39968;SDS011;25648;47.808;19.004;2022-12-20T04:34:02;57.17;;;25.65;;
39968;SDS011;25648;47.808;19.004;2022-12-20T04:36:28;49.70;;;24.08;;
39968;SDS011;25648;47.808;19.004;2022-12-20T04:38:54;56.30;;;25.45;;
39968;SDS011;25648;47.808;19.004;2022-12-20T04:41:19;56.25;;;26.58;;
39968;SDS011;25648;47.808;19.004;2022-12-20T04:43:48;50.75;;;25.00;;
39968;SDS011;25648;47.808;19.004;2022-12-20T04:46:19;51.25;;;24.25;;
39968;SDS011;25648;47.808;19.004;2022-12-20T04:48:45;50.60;;;22.77;;
39968;SDS011;25648;47.808;19.004;2022-12-20T04:51:11;62.08;;;26.98;;
39968;SDS011;25648;47.808;19.004;2022-12-20T04:53:37;65.05;;;28.45;;
39968;SDS011;25648;47.808;19.004;2022-12-20T04:56:16;62.38;;;26.83;;
39968;SDS011;25648;47.808;19.004;2022-12-20T04:58:47;60.72;;;25.52;;
39968;SDS011;25648;47.808;19.004;2022-12-20T05:01:14;56.60;;;25.65;;
39968;SDS011;25648;47.808;19.004;2022-12-20T05:03:40;60.58;;;27.70;;
39968;SDS011;25648;47.808;19.004;2022-12-20T05:06:06;56.38;;;26.05;;
39968;SDS011;25648;47.808;19.004;2022-12-20T05:08:33;57.45;;;26.73;;
39968;SDS011;25648;47.808;19.004;2022-12-20T05:10:59;53.60;;;25.42;;
39968;SDS011;25648;47.808;19.004;2022-12-20T05:13:25;54.83;;;24.40;;
39968;SDS011;25648;47.808;19.004;2022-12-20T05:15:51;56.53;;;26.80;;
39968;SDS011;25648;47.808;19.004;2022-12-20T05:18:18;59.40;;;27.33;;
39968;SDS011;25648;47.808;19.004;2022-12-20T05:20:46;60.65;;;27.98;;
39968;SDS011;25648;47.808;19.004;2022-12-20T05:23:12;59.13;;;26.35;;
39968;SDS011;25648;47.808;19.004;2022-12-20T05:25:56;54.63;;;24.75;;
39968;SDS011;25648;47.808;19.004;2022-12-20T05:28:41;55.50;;;26.50;;
39968;SDS011;25648;47.808;19.004;2022-12-20T05:31:07;52.42;;;25.83;;
39968;SDS011;25648;47.808;19.004;2022-12-20T05:33:32;57.35;;;25.33;;
39968;SDS011;25648;47.808;19.004;2022-12-20T05:35:58;55.17;;;25.90;;
39968;SDS011;25648;47.808;19.004;2022-12-20T05:38:24;60.20;;;26.00;;
39968;SDS011;25648;47.808;19.004;2022-12-20T05:40:49;58.78;;;26.17;;
39968;SDS011;25648;47.808;19.004;2022-12-20T05:43:16;52.10;;;25.63;;
39968;SDS011;25648;47.808;19.004;2022-12-20T05:45:47;52.03;;;23.90;;
39968;SDS011;25648;47.808;19.004;2022-12-20T05:48:14;53.30;;;25.23;;
39968;SDS011;25648;47.808;19.004;2022-12-20T05:50:41;52.47;;;24.08;;
39968;SDS011;25648;47.808;19.004;2022-12-20T05:53:10;53.40;;;24.13;;
39968;SDS011;25648;47.808;19.004;2022-12-20T05:55:36;52.83;;;23.92;;
39968;SDS011;25648;47.808;19.004;2022-12-20T05:58:04;48.30;;;22.98;;
39968;SDS011;25648;47.808;19.004;2022-12-20T06:00:31;48.67;;;22.92;;
39968;SDS011;25648;47.808;19.004;2022-12-20T06:02:57;56.35;;;24.80;;
39968;SDS011;25648;47.808;19.004;2022-12-20T06:05:23;53.90;;;25.42;;
39968;SDS011;25648;47.808;19.004;2022-12-20T06:07:48;51.88;;;25.15;;
39968;SDS011;25648;47.808;19.004;2022-12-20T06:10:14;53.83;;;25.02;;
39968;SDS011;25648;47.808;19.004;2022-12-20T06:12:40;52.60;;;24.05;;
39968;SDS011;25648;47.808;19.004;2022-12-20T06:15:06;50.92;;;23.95;;
39968;SDS011;25648;47.808;19.004;2022-12-20T06:17:34;56.53;;;23.70;;
39968;SDS011;25648;47.808;19.004;2022-12-20T06:20:00;53.00;;;24.98;;
39968;SDS011;25648;47.808;19.004;2022-12-20T06:22:26;57.53;;;26.15;;
39968;SDS011;25648;47.808;19.004;2022-12-20T06:24:52;55.13;;;25.60;;
39968;SDS011;25648;47.808;19.004;2022-12-20T06:27:18;51.58;;;24.95;;
39968;SDS011;25648;47.808;19.004;2022-12-20T06:29:45;58.70;;;27.05;;
39968;SDS011;25648;47.808;19.004;2022-12-20T06:32:16;52.20;;;25.02;;
39968;SDS011;25648;47.808;19.004;2022-12-20T06:34:42;53.25;;;24.58;;
39968;SDS011;25648;47.808;19.004;2022-12-20T06:37:07;60.33;;;26.33;;
39968;SDS011;25648;47.808;19.004;2022-12-20T06:39:33;60.53;;;26.95;;
39968;SDS011;25648;47.808;19.004;2022-12-20T06:41:59;51.50;;;22.92;;
39968;SDS011;25648;47.808;19.004;2022-12-20T06:44:24;58.95;;;26.45;;
39968;SDS011;25648;47.808;19.004;2022-12-20T06:46:50;66.90;;;26.23;;
39968;SDS011;25648;47.808;19.004;2022-12-20T06:49:16;54.70;;;26.40;;
39968;SDS011;25648;47.808;19.004;2022-12-20T06:51:41;51.60;;;23.13;;
39968;SDS011;25648;47.808;19.004;2022-12-20T06:54:07;51.97;;;24.08;;
39968;SDS011;25648;47.808;19.004;2022-12-20T06:56:33;54.95;;;24.52;;
39968;SDS011;25648;47.808;19.004;2022-12-20T06:58:59;52.60;;;24.58;;
39968;SDS011;25648;47.808;19.004;2022-12-20T07:01:24;58.90;;;24.83;;
39968;SDS011;25648;47.808;19.004;2022-12-20T07:03:50;52.28;;;24.88;;
39968;SDS011;25648;47.808;19.004;2022-12-20T07:06:16;52.55;;;24.48;;
39968;SDS011;25648;47.808;19.004;2022-12-20T07:08:41;51.67;;;25.00;;
39968;SDS011;25648;47.808;19.004;2022-12-20T07:11:07;59.30;;;27.58;;
39968;SDS011;25648;47.808;19.004;2022-12-20T07:13:33;55.30;;;24.75;;
39968;SDS011;25648;47.808;19.004;2022-12-20T07:15:59;58.58;;;25.90;;
39968;SDS011;25648;47.808;19.004;2022-12-20T07:18:26;63.38;;;28.58;;
39968;SDS011;25648;47.808;19.004;2022-12-20T07:20:53;54.30;;;24.92;;
39968;SDS011;25648;47.808;19.004;2022-12-20T07:23:18;51.95;;;25.52;;
39968;SDS011;25648;47.808;19.004;2022-12-20T07:25:51;55.15;;;26.38;;
39968;SDS011;25648;47.808;19.004;2022-12-20T07:28:19;50.95;;;23.25;;
39968;SDS011;25648;47.808;19.004;2022-12-20T07:30:44;49.78;;;26.15;;
39968;SDS011;25648;47.808;19.004;2022-12-20T07:33:10;51.63;;;26.25;;
39968;SDS011;25648;47.808;19.004;2022-12-20T07:35:35;48.22;;;24.20;;
39968;SDS011;25648;47.808;19.004;2022-12-20T07:38:01;55.45;;;24.88;;
39968;SDS011;25648;47.808;19.004;2022-12-20T07:40:27;53.45;;;25.65;;
39968;SDS011;25648;47.808;19.004;2022-12-20T07:42:52;54.65;;;25.88;;
39968;SDS011;25648;47.808;19.004;2022-12-20T07:45:18;53.47;;;25.02;;
39968;SDS011;25648;47.808;19.004;2022-12-20T07:47:44;57.42;;;25.77;;
39968;SDS011;25648;47.808;19.004;2022-12-20T07:50:09;51.47;;;25.40;;
39968;SDS011;25648;47.808;19.004;2022-12-20T07:52:35;53.53;;;26.50;;
39968;SDS011;25648;47.808;19.004;2022-12-20T07:55:03;56.00;;;26.25;;
39968;SDS011;25648;47.808;19.004;2022-12-20T07:57:37;52.88;;;23.90;;
39968;SDS011;25648;47.808;19.004;2022-12-20T08:00:08;48.95;;;24.15;;
39968;SDS011;25648;47.808;19.004;2022-12-20T08:02:40;52.22;;;24.58;;
39968;SDS011;25648;47.808;19.004;2022-12-20T08:05:13;61.70;;;26.02;;
39968;SDS011;25648;47.808;19.004;2022-12-20T08:07:40;47.15;;;23.40;;
39968;SDS011;25648;47.808;19.004;2022-12-20T08:10:09;52.33;;;25.40;;
39968;SDS011;25648;47.808;19.004;2022-12-20T08:12:36;54.40;;;24.92;;
39968;SDS011;25648;47.808;19.004;2022-12-20T08:15:03;52.88;;;24.98;;
39968;SDS011;25648;47.808;19.004;2022-12-20T08:17:29;51.28;;;24.65;;
39968;SDS011;25648;47.808;19.004;2022-12-20T08:19:54;56.92;;;25.13;;
39968;SDS011;25648;47.808;19.004;2022-12-20T08:22:21;58.40;;;26.27;;
39968;SDS011;25648;47.808;19.004;2022-12-20T08:24:47;56.20;;;25.38;;
39968;SDS011;25648;47.808;19.004;2022-12-20T08:27:13;60.58;;;28.42;;
39968;SDS011;25648;47.808;19.004;2022-12-20T08:31:17;74.25;;;29.17;;
39968;SDS011;25648;47.808;19.004;2022-12-20T08:33:43;73.60;;;27.95;;
39968;SDS011;25648;47.808;19.004;2022-12-20T08:36:09;57.85;;;26.00;;
39968;SDS011;25648;47.808;19.004;2022-12-20T08:38:36;52.92;;;25.27;;
39968;SDS011;25648;47.808;19.004;2022-12-20T08:41:03;55.20;;;25.85;;
39968;SDS011;25648;47.808;19.004;2022-12-20T08:43:32;47.90;;;24.30;;
39968;SDS011;25648;47.808;19.004;2022-12-20T08:45:58;48.10;;;24.92;;
39968;SDS011;25648;47.808;19.004;2022-12-20T08:48:23;50.08;;;25.65;;
39968;SDS011;25648;47.808;19.004;2022-12-20T08:50:53;52.22;;;24.95;;
39968;SDS011;25648;47.808;19.004;2022-12-20T08:53:20;52.58;;;26.92;;
39968;SDS011;25648;47.808;19.004;2022-12-20T08:55:45;44.75;;;23.25;;
39968;SDS011;25648;47.808;19.004;2022-12-20T08:58:11;50.53;;;25.42;;
39968;SDS011;25648;47.808;19.004;2022-12-20T09:00:37;50.45;;;22.60;;
39968;SDS011;25648;47.808;19.004;2022-12-20T09:03:02;44.38;;;22.25;;
39968;SDS011;25648;47.808;19.004;2022-12-20T09:05:28;47.28;;;24.48;;
39968;SDS011;25648;47.808;19.004;2022-12-20T09:07:54;41.33;;;22.67;;
39968;SDS011;25648;47.808;19.004;2022-12-20T09:10:20;43.63;;;21.10;;
39968;SDS011;25648;47.808;19.004;2022-12-20T09:12:45;45.53;;;23.90;;
39968;SDS011;25648;47.808;19.004;2022-12-20T09:15:11;42.58;;;22.75;;
39968;SDS011;25648;47.808;19.004;2022-12-20T09:17:36;47.35;;;22.25;;
39968;SDS011;25648;47.808;19.004;2022-12-20T09:20:02;43.63;;;22.60;;
39968;SDS011;25648;47.808;19.004;2022-12-20T09:22:29;48.05;;;24.67;;
39968;SDS011;25648;47.808;19.004;2022-12-20T09:24:54;48.78;;;22.98;;
39968;SDS011;25648;47.808;19.004;2022-12-20T09:27:20;48.50;;;23.13;;
39968;SDS011;25648;47.808;19.004;2022-12-20T09:29:46;50.50;;;24.73;;
39968;SDS011;25648;47.808;19.004;2022-12-20T09:32:12;47.83;;;24.30;;
39968;SDS011;25648;47.808;19.004;2022-12-20T09:34:38;44.15;;;22.70;;
39968;SDS011;25648;47.808;19.004;2022-12-20T09:37:04;42.78;;;21.20;;
39968;SDS011;25648;47.808;19.004;2022-12-20T09:39:29;36.75;;;19.85;;
39968;SDS011;25648;47.808;19.004;2022-12-20T09:41:56;43.38;;;22.15;;
39968;SDS011;25648;47.808;19.004;2022-12-20T09:44:30;42.47;;;24.00;;
39968;SDS011;25648;47.808;19.004;2022-12-20T09:47:02;44.42;;;22.55;;
39968;SDS011;25648;47.808;19.004;2022-12-20T09:49:37;52.55;;;25.27;;
39968;SDS011;25648;47.808;19.004;2022-12-20T10:00:15;54.63;;;25.13;;
39968;SDS011;25648;47.808;19.004;2022-12-20T10:02:43;69.90;;;30.05;;
39968;SDS011;25648;47.808;19.004;2022-12-20T10:05:15;51.65;;;25.23;;
39968;SDS011;25648;47.808;19.004;2022-12-20T10:07:54;42.60;;;20.05;;
39968;SDS011;25648;47.808;19.004;2022-12-20T10:10:43;37.72;;;20.40;;
39968;SDS011;25648;47.808;19.004;2022-12-20T10:24:02;40.60;;;19.95;;
39968;SDS011;25648;47.808;19.004;2022-12-20T10:26:49;39.65;;;19.10;;
39968;SDS011;25648;47.808;19.004;2022-12-20T10:29:15;37.15;;;18.92;;
39968;SDS011;25648;47.808;19.004;2022-12-20T10:31:41;37.35;;;19.05;;
39968;SDS011;25648;47.808;19.004;2022-12-20T10:34:07;39.83;;;18.95;;
39968;SDS011;25648;47.808;19.004;2022-12-20T10:36:33;36.17;;;18.83;;
39968;SDS011;25648;47.808;19.004;2022-12-20T10:39:04;39.03;;;20.15;;
39968;SDS011;25648;47.808;19.004;2022-12-20T10:44:26;37.20;;;19.48;;
39968;SDS011;25648;47.808;19.004;2022-12-20T10:46:54;40.03;;;20.40;;
39968;SDS011;25648;47.808;19.004;2022-12-20T10:51:59;36.40;;;18.75;;
39968;SDS011;25648;47.808;19.004;2022-12-20T10:57:54;40.65;;;18.70;;
39968;SDS011;25648;47.808;19.004;2022-12-20T11:00:29;34.10;;;17.60;;
39968;SDS011;25648;47.808;19.004;2022-12-20T11:14:43;38.78;;;20.00;;
39968;SDS011;25648;47.808;19.004;2022-12-20T11:25:27;33.05;;;16.83;;
39968;SDS011;25648;47.808;19.004;2022-12-20T11:30:48;33.35;;;18.77;;
39968;SDS011;25648;47.808;19.004;2022-12-20T11:33:46;32.78;;;18.00;;
39968;SDS011;25648;47.808;19.004;2022-12-20T11:36:58;37.35;;;19.33;;
39968;SDS011;25648;47.808;19.004;2022-12-20T11:39:39;32.42;;;16.90;;
39968;SDS011;25648;47.808;19.004;2022-12-20T11:47:41;35.10;;;17.80;;
39968;SDS011;25648;47.808;19.004;2022-12-20T11:50:18;36.03;;;18.03;;
39968;SDS011;25648;47.808;19.004;2022-12-20T11:52:56;33.97;;;17.38;;
39968;SDS011;25648;47.808;19.004;2022-12-20T11:55:26;34.63;;;18.00;;
39968;SDS011;25648;47.808;19.004;2022-12-20T11:57:58;31.27;;;17.35;;
39968;SDS011;25648;47.808;19.004;2022-12-20T12:11:50;36.47;;;18.73;;
39968;SDS011;25648;47.808;19.004;2022-12-20T12:14:54;32.85;;;16.88;;
39968;SDS011;25648;47.808;19.004;2022-12-20T12:17:47;32.90;;;17.50;;
39968;SDS011;25648;47.808;19.004;2022-12-20T12:26:03;35.42;;;18.08;;
39968;SDS011;25648;47.808;19.004;2022-12-20T12:28:34;35.65;;;17.23;;
39968;SDS011;25648;47.808;19.004;2022-12-20T12:31:05;35.40;;;17.73;;
39968;SDS011;25648;47.808;19.004;2022-12-20T12:33:45;34.35;;;18.88;;
39968;SDS011;25648;47.808;19.004;2022-12-20T12:45:13;34.25;;;16.73;;
39968;SDS011;25648;47.808;19.004;2022-12-20T12:47:52;35.72;;;18.27;;
39968;SDS011;25648;47.808;19.004;2022-12-20T12:50:23;34.03;;;17.42;;
39968;SDS011;25648;47.808;19.004;2022-12-20T12:52:55;30.92;;;16.75;;
39968;SDS011;25648;47.808;19.004;2022-12-20T12:56:03;35.67;;;18.95;;
39968;SDS011;25648;47.808;19.004;2022-12-20T13:01:01;37.22;;;21.00;;
39968;SDS011;25648;47.808;19.004;2022-12-20T13:04:07;33.08;;;17.88;;
39968;SDS011;25648;47.808;19.004;2022-12-20T13:14:55;31.75;;;16.77;;
39968;SDS011;25648;47.808;19.004;2022-12-20T13:16:52;32.67;;;17.67;;
39968;SDS011;25648;47.808;19.004;2022-12-20T13:21:56;34.17;;;18.35;;
39968;SDS011;25648;47.808;19.004;2022-12-20T13:27:26;33.13;;;16.75;;
39968;SDS011;25648;47.808;19.004;2022-12-20T13:38:04;33.42;;;17.85;;
39968;SDS011;25648;47.808;19.004;2022-12-20T13:45:47;38.05;;;18.60;;
39968;SDS011;25648;47.808;19.004;2022-12-20T13:48:40;36.25;;;18.65;;
39968;SDS011;25648;47.808;19.004;2022-12-20T13:51:18;39.13;;;19.35;;
39968;SDS011;25648;47.808;19.004;2022-12-20T13:53:51;36.10;;;19.38;;
39968;SDS011;25648;47.808;19.004;2022-12-20T13:56:50;38.55;;;20.35;;
39968;SDS011;25648;47.808;19.004;2022-12-20T13:59:18;40.95;;;21.50;;
39968;SDS011;25648;47.808;19.004;2022-12-20T14:01:51;42.13;;;20.52;;
39968;SDS011;25648;47.808;19.004;2022-12-20T14:04:19;45.15;;;22.25;;
39968;SDS011;25648;47.808;19.004;2022-12-20T14:06:49;45.92;;;22.70;;
39968;SDS011;25648;47.808;19.004;2022-12-20T14:09:29;46.63;;;23.02;;
39968;SDS011;25648;47.808;19.004;2022-12-20T14:12:09;45.15;;;24.15;;
39968;SDS011;25648;47.808;19.004;2022-12-20T14:14:47;41.40;;;22.65;;
39968;SDS011;25648;47.808;19.004;2022-12-20T14:17:15;44.17;;;23.40;;
39968;SDS011;25648;47.808;19.004;2022-12-20T14:27:51;46.30;;;22.85;;
39968;SDS011;25648;47.808;19.004;2022-12-20T14:30:24;52.13;;;24.20;;
39968;SDS011;25648;47.808;19.004;2022-12-20T14:32:53;55.30;;;25.70;;
39968;SDS011;25648;47.808;19.004;2022-12-20T14:35:20;50.90;;;25.20;;
39968;SDS011;25648;47.808;19.004;2022-12-20T14:37:53;46.75;;;23.90;;
39968;SDS011;25648;47.808;19.004;2022-12-20T14:40:20;44.58;;;23.70;;
39968;SDS011;25648;47.808;19.004;2022-12-20T14:42:48;46.92;;;24.30;;
39968;SDS011;25648;47.808;19.004;2022-12-20T14:47:53;187.88;;;75.95;;
39968;SDS011;25648;47.808;19.004;2022-12-20T14:53:00;185.32;;;63.83;;
39968;SDS011;25648;47.808;19.004;2022-12-20T14:55:36;105.13;;;43.85;;
39968;SDS011;25648;47.808;19.004;2022-12-20T14:58:22;156.38;;;61.28;;
39968;SDS011;25648;47.808;19.004;2022-12-20T15:01:20;126.63;;;52.15;;
39968;SDS011;25648;47.808;19.004;2022-12-20T15:03:52;109.68;;;42.70;;
39968;SDS011;25648;47.808;19.004;2022-12-20T15:08:57;109.90;;;43.20;;
39968;SDS011;25648;47.808;19.004;2022-12-20T15:11:22;141.95;;;53.63;;
39968;SDS011;25648;47.808;19.004;2022-12-20T15:13:50;120.22;;;47.17;;
39968;SDS011;25648;47.808;19.004;2022-12-20T15:16:22;136.02;;;52.97;;
39968;SDS011;25648;47.808;19.004;2022-12-20T15:18:57;159.07;;;63.67;;
39968;SDS011;25648;47.808;19.004;2022-12-20T15:21:28;115.88;;;50.85;;
39968;SDS011;25648;47.808;19.004;2022-12-20T15:23:58;80.72;;;36.40;;
39968;SDS011;25648;47.808;19.004;2022-12-20T15:26:26;96.75;;;44.90;;
39968;SDS011;25648;47.808;19.004;2022-12-20T15:28:53;114.07;;;49.33;;
39968;SDS011;25648;47.808;19.004;2022-12-20T15:31:20;88.32;;;39.30;;
39968;SDS011;25648;47.808;19.004;2022-12-20T15:33:48;98.10;;;44.45;;
39968;SDS011;25648;47.808;19.004;2022-12-20T15:36:22;89.32;;;41.78;;
39968;SDS011;25648;47.808;19.004;2022-12-20T15:38:50;66.90;;;35.33;;
39968;SDS011;25648;47.808;19.004;2022-12-20T15:43:42;66.07;;;32.90;;
39968;SDS011;25648;47.808;19.004;2022-12-20T15:46:07;60.80;;;30.88;;
39968;SDS011;25648;47.808;19.004;2022-12-20T15:48:34;63.78;;;32.22;;
39968;SDS011;25648;47.808;19.004;2022-12-20T15:51:00;63.00;;;31.48;;
39968;SDS011;25648;47.808;19.004;2022-12-20T15:53:29;76.25;;;39.90;;
39968;SDS011;25648;47.808;19.004;2022-12-20T15:55:57;77.47;;;37.75;;
39968;SDS011;25648;47.808;19.004;2022-12-20T15:58:23;62.95;;;31.50;;
39968;SDS011;25648;47.808;19.004;2022-12-20T16:00:49;73.00;;;36.35;;
39968;SDS011;25648;47.808;19.004;2022-12-20T16:03:22;76.25;;;36.63;;
39968;SDS011;25648;47.808;19.004;2022-12-20T16:05:50;81.80;;;40.20;;
39968;SDS011;25648;47.808;19.004;2022-12-20T16:08:16;73.47;;;35.97;;
39968;SDS011;25648;47.808;19.004;2022-12-20T16:10:45;74.20;;;36.13;;
39968;SDS011;25648;47.808;19.004;2022-12-20T16:13:15;65.63;;;33.42;;
39968;SDS011;25648;47.808;19.004;2022-12-20T16:15:45;76.70;;;36.50;;
39968;SDS011;25648;47.808;19.004;2022-12-20T16:18:11;80.72;;;39.67;;
39968;SDS011;25648;47.808;19.004;2022-12-20T16:20:37;79.38;;;39.17;;
39968;SDS011;25648;47.808;19.004;2022-12-20T16:23:03;78.47;;;37.78;;
39968;SDS011;25648;47.808;19.004;2022-12-20T16:25:32;77.90;;;37.67;;
39968;SDS011;25648;47.808;19.004;2022-12-20T16:28:00;75.50;;;37.00;;
39968;SDS011;25648;47.808;19.004;2022-12-20T16:30:28;77.15;;;38.42;;
39968;SDS011;25648;47.808;19.004;2022-12-20T16:32:54;75.22;;;39.67;;
39968;SDS011;25648;47.808;19.004;2022-12-20T16:35:24;98.80;;;46.05;;
39968;SDS011;25648;47.808;19.004;2022-12-20T16:37:57;87.80;;;38.88;;
39968;SDS011;25648;47.808;19.004;2022-12-20T16:40:25;86.78;;;41.70;;
39968;SDS011;25648;47.808;19.004;2022-12-20T16:42:52;90.50;;;44.03;;
39968;SDS011;25648;47.808;19.004;2022-12-20T16:45:20;82.03;;;40.53;;
39968;SDS011;25648;47.808;19.004;2022-12-20T16:47:55;85.45;;;39.95;;
39968;SDS011;25648;47.808;19.004;2022-12-20T16:50:22;81.93;;;39.22;;
39968;SDS011;25648;47.808;19.004;2022-12-20T16:52:50;79.90;;;37.20;;
39968;SDS011;25648;47.808;19.004;2022-12-20T16:55:20;68.80;;;32.97;;